Latest Coastal Weather Observations for St Helens

IDT60701

Issued at 5:52 pm EST Wednesday 26 April 2017 (issued every 10 minutes, with the page automatically refreshed every 10 minutes)

About coastal observations | Map of coastal stations | Coastal observations for TAS | Marine services | Other Formats
Station Details ID: 092120 Name: ST HELENS AERODROME Lat: -41.34 Lon: 148.28 Height: 48.0 m
Data from the previous 72 hours. | See also: Recent months at St Helens
Date/Time
EST
Temp
°C
Wind Pressure Rain since
9am
mm
Weather Cloud Vis
km
Sea
Height
m
Swell
Dir  Spd
kts
Gust
kts
hPa Trend Height
m
Period
s
Dir
26/05:30pm 9.4 S 7 10 1011.2 - 1.2 - Cloudy 10 - - - -
26/05:00pm 9.5 S 5 7 1010.5 - 1.2 - Cloudy 10 - - - -
26/04:30pm 9.7 S 6 10 1010.0 - 1.2 - Partly cloudy 10 - - - -
26/04:00pm 10.3 S 6 10 1009.5 - 1.2 - Partly cloudy 10 - - - -
26/03:30pm 10.6 S 7 10 1009.1 - 1.2 - Cloudy 10 - - - -
26/03:00pm 10.6 S 6 9 1008.6 - 1.2 - Mostly cloudy 10 - - - -
26/02:30pm 10.4 SSW 7 11 1008.1 - 1.2 - Cloudy 10 - - - -
26/02:00pm 10.4 S 7 11 1007.7 - 1.2 - Partly cloudy 10 - - - -
26/01:30pm 10.3 S 6 9 1007.6 - 1.2 - Cloudy 10 - - - -
26/01:00pm 9.9 SSW 6 10 1007.2 - 1.2 - Cloudy 10 - - - -
26/12:30pm 9.2 SSW 8 13 1007.0 - 1.2 - Partly cloudy 10 - - - -
26/12:00pm 9.1 SSW 5 9 1006.9 - 1.0 - Cloudy 10 - - - -
26/11:30am 8.9 SSW 7 12 1006.6 - 1.0 - Cloudy 10 - - - -
26/11:00am 8.9 SSW 7 11 1006.5 - 1.0 - Partly cloudy 10 - - - -
26/10:30am 9.3 S 6 10 1005.9 - 0.6 - Cloudy 10 - - - -
26/10:00am 9.2 S 9 15 1005.4 - 0.4 - Cloudy 10 - - - -
26/09:30am 9.5 S 8 13 1004.9 - 0.2 - Partly cloudy 10 - - - -
26/09:00am 9.8 S 6 9 1004.5 - 7.4 Rain Cloudy 25 - - - -
26/08:30am 9.8 SSW 6 10 1004.0 - 6.8 - Partly cloudy 10 - - - -
26/08:00am 10.0 SSW 7 11 1003.3 - 6.8 - Partly cloudy 10 - - - -
26/07:30am 10.1 SSW 8 13 1002.7 - 6.6 - Partly cloudy 10 - - - -
26/07:00am 10.0 SSW 6 8 1002.0 - 6.6 - Partly cloudy 10 - - - -
26/06:30am 10.4 SSW 5 8 1001.5 - 6.0 - Partly cloudy 10 - - - -
26/06:00am 10.1 SSW 5 6 1000.9 - 6.0 - Cloudy 10 - - - -
26/05:30am 10.1 SSW 3 5 1000.4 - 6.0 - Cloudy 10 - - - -
26/05:00am 9.7 SSW 4 5 1000.1 - 6.0 - Cloudy 10 - - - -
26/04:30am 9.7 CALM 0 0 999.8 - 6.0 - Partly cloudy 10 - - - -
26/04:00am 9.7 SW 2 3 999.4 - 6.0 - Cloudy 10 - - - -
26/03:30am 10.0 CALM 0 0 999.3 - 5.8 - Partly cloudy 10 - - - -
26/03:00am 10.2 WNW 2 3 999.6 - 4.8 - Cloudy 10 - - - -
26/02:30am 9.8 CALM 0 1 999.7 - 4.8 - Partly cloudy 10 - - - -
26/02:00am 10.0 WNW 3 4 999.8 - 4.8 - Partly cloudy 10 - - - -
26/01:30am 9.9 NNW 3 4 999.8 - 4.8 - Partly cloudy 10 - - - -
26/01:00am 9.4 W 2 4 1000.1 - 4.6 - - 10 - - - -
26/12:30am 9.5 WNW 2 4 1000.2 - 4.6 - - 10 - - - -
26/12:00am 10.5 NNW 2 5 1000.3 - 4.6 - - 10 - - - -
 
Date/Time
EST
Temp
°C
Wind Pressure Rain since
9am
mm
Weather Cloud Vis
km
Sea
Height
m
Swell
Dir  Spd
kts
Gust
kts
hPa Trend Height
m
Period
s
Dir
25/11:30pm 11.5 N 4 5 1000.2 - 4.6 - - 10 - - - -
25/11:00pm 12.2 N 1 4 1000.1 - 4.6 - - 10 - - - -
25/10:30pm 11.8 NW 5 6 1000.4 - 4.6 - - 10 - - - -
25/10:00pm 12.4 NW 5 7 1000.5 - 4.6 - - 10 - - - -
25/09:30pm 13.2 WNW 5 8 1000.7 - 4.6 - - 10 - - - -
25/09:00pm 13.7 NW 10 14 1000.6 - 4.6 - - 10 - - - -
25/08:41pm 13.5 NW 9 12 1000.6 - 4.6 - - 10 - - - -
25/08:30pm 13.7 NW 8 13 1000.5 - 4.6 - - 4 - - - -
25/08:16pm 13.4 NW 9 12 1000.4 - 4.6 - - 5 - - - -
25/08:00pm 13.9 NW 7 9 1000.4 - 4.6 - - 10 - - - -
25/07:30pm 14.3 NW 6 9 1000.6 - 4.6 - - 10 - - - -
25/07:00pm 13.8 W 6 11 1000.3 - 4.6 - - 10 - - - -
25/06:30pm 14.7 NNW 5 8 1000.2 - 4.6 - - 10 - - - -
25/06:00pm 14.9 NW 3 7 999.9 - 4.6 - - 10 - - - -
25/05:30pm 15.3 CALM 0 0 999.7 - 4.6 - - 10 - - - -
25/05:00pm 15.9 CALM 0 0 999.6 - 4.6 - Partly cloudy 10 - - - -
25/04:30pm 15.8 CALM 0 0 999.7 - 4.6 - Partly cloudy 10 - - - -
25/04:00pm 16.0 ENE 1 3 1000.0 - 4.6 - Partly cloudy 10 - - - -
25/03:30pm 15.9 NNE 4 6 1000.2 - 4.6 - Partly cloudy 10 - - - -
25/03:00pm 16.2 ENE 6 7 1000.5 - 4.6 - Partly cloudy 10 - - - -
25/02:30pm 16.2 ENE 5 6 1000.8 - 4.6 - Cloudy 10 - - - -
25/02:00pm 15.9 NE 3 4 1000.9 - 4.6 - Partly cloudy 10 - - - -
25/01:32pm 15.7 W 1 4 1001.1 - 4.6 - Partly cloudy 10 - - - -
25/01:30pm 15.7 WNW 1 4 1001.1 - 4.6 - Partly cloudy 10 - - - -
25/01:00pm 14.7 NNW 3 5 1001.7 - 4.6 - Cloudy 7 - - - -
25/12:30pm 14.5 CALM 0 0 1001.3 - 4.6 - Cloudy 9 - - - -
25/12:14pm 14.7 CALM 0 0 1001.9 - 4.6 - Partly cloudy 7 - - - -
25/12:00pm 14.5 CALM 0 - 1002.1 - 4.6 - Cloudy 3 - - - -
25/11:45am 14.5 CALM 0 - 1002.8 - 4.2 - Partly cloudy 3 - - - -
25/11:30am 14.5 CALM 0 0 1003.0 - 4.0 - Partly cloudy 4 - - - -
25/11:16am 14.5 CALM 0 - 1003.3 - 3.2 - Partly cloudy 5 - - - -
25/11:00am 14.6 CALM 0 0 1003.5 - 3.0 - Partly cloudy 10 - - - -
25/10:52am 14.6 CALM 0 0 1003.5 - 3.0 - Partly cloudy 8 - - - -
25/10:30am 14.7 CALM 0 - 1003.6 - 2.8 - Partly cloudy 3 - - - -
25/10:20am 14.5 CALM 0 - 1003.8 - 2.4 - Partly cloudy 4 - - - -
25/10:16am 14.5 CALM 0 - 1003.9 - 2.4 - Partly cloudy 4 - - - -
25/10:00am 14.5 CALM 0 - 1004.1 - 2.2 - Partly cloudy 0.3 - - - -
25/09:58am 14.6 CALM 0 - 1004.2 - 2.2 - Partly cloudy 0.3 - - - -
25/09:57am 14.5 CALM 0 0 1004.2 - 2.2 - Partly cloudy 0.3 - - - -
25/09:48am 14.5 CALM 0 - 1004.4 - 2.0 - Partly cloudy 0.8 - - - -
25/09:30am 14.4 CALM 0 - 1004.8 - 1.0 - Partly cloudy 2 - - - -
25/09:25am 14.3 CALM 0 0 1004.9 - 0.6 - Partly cloudy 3 - - - -
25/09:00am 14.3 CALM 0 - 1005.3 - 7.8 Rain Cloudy 2 - - - -
25/08:30am 14.1 CALM 0 - 1005.7 - 7.6 - Partly cloudy 2 - - - -
25/08:10am 14.2 CALM 0 - 1005.9 - 7.0 - Partly cloudy 4 - - - -
25/08:02am 14.1 CALM 0 0 1005.9 - 6.8 - Partly cloudy 5 - - - -
25/08:00am 14.1 CALM 0 0 1005.9 - 6.8 - Partly cloudy 5 - - - -
25/07:42am 14.1 CALM 0 0 1006.0 - 6.2 - Partly cloudy 2 - - - -
25/07:40am 14.1 CALM 0 0 1006.1 - 6.0 - Partly cloudy 5 - - - -
25/07:36am 14.1 CALM 0 0 1006.1 - 6.0 - Partly cloudy 5 - - - -
25/07:30am 14.1 CALM 0 - 1006.1 - 5.8 - Partly cloudy 5 - - - -
25/07:00am 14.2 CALM 0 - 1006.3 - 5.2 - Partly cloudy 0.2 - - - -
25/06:47am 14.3 NW 2 5 1006.6 - 5.0 - Partly cloudy 0.7 - - - -
25/06:30am 14.4 CALM 0 - 1006.4 - 3.6 - Partly cloudy 2 - - - -
25/06:00am 14.3 CALM 0 - 1006.8 - 2.2 - Cloudy 3 - - - -
25/05:30am 14.5 CALM 0 2 1007.4 - 1.2 - Partly cloudy 5 - - - -
25/05:23am 14.4 W 1 4 1007.5 - 1.0 - Partly cloudy 5 - - - -
25/05:16am 14.5 CALM 0 0 1007.6 - 0.8 - Partly cloudy 5 - - - -
25/05:00am 14.5 CALM 0 4 1007.7 - 0.6 - Partly cloudy 5 - - - -
25/04:52am 14.5 W 1 4 1007.9 - 0.6 - Partly cloudy 5 - - - -
25/04:30am 14.5 CALM 0 0 1008.1 - 0.4 - Cloudy 9 - - - -
25/04:00am 14.6 W 2 3 1008.1 - 0.0 - Partly cloudy 10 - - - -
25/03:30am 14.7 W 3 5 1008.5 - 0.0 - Partly cloudy 10 - - - -
25/03:00am 15.3 NNW 3 6 1008.7 - 0.0 - Mostly clear 10 - - - -
25/02:30am 15.1 NNW 4 6 1009.4 - 0.0 - Partly cloudy 10 - - - -
25/02:00am 15.1 NW 3 5 1010.2 - 0.0 - Partly cloudy 10 - - - -
25/01:30am 15.2 NW 4 6 1010.6 - 0.0 - Partly cloudy 10 - - - -
25/01:00am 14.5 SSW 2 4 1011.0 - 0.0 - Partly cloudy 10 - - - -
25/12:30am 14.5 W 3 6 1011.2 - 0.0 - Partly cloudy 10 - - - -
25/12:00am 14.5 WNW 4 6 1011.8 - 0.0 - Mostly clear 10 - - - -
 
Date/Time
EST
Temp
°C
Wind Pressure Rain since
9am
mm
Weather Cloud Vis
km
Sea
Height
m
Swell
Dir  Spd
kts
Gust
kts
hPa Trend Height
m
Period
s
Dir
24/11:30pm 14.7 N 4 6 1012.5 - 0.0 - Partly cloudy 10 - - - -
24/11:00pm 14.5 CALM 0 0 1012.9 - 0.0 - Partly cloudy 10 - - - -
24/10:30pm 15.0 NW 1 4 1013.5 - 0.0 - Partly cloudy 10 - - - -
24/10:00pm 15.2 CALM 0 3 1013.6 - 0.0 - Partly cloudy 10 - - - -
24/09:30pm 15.2 WSW 2 4 1013.8 - 0.0 - Partly cloudy 10 - - - -
24/09:00pm 15.2 NW 3 5 1014.0 - 0.0 - Cloudy 10 - - - -
24/08:30pm 15.2 W 3 5 1014.1 - 0.0 - Cloudy 10 - - - -
24/08:00pm 15.2 WNW 3 6 1014.3 - 0.0 - Partly cloudy 10 - - - -
24/07:30pm 15.4 WNW 4 6 1014.5 - 0.0 - - 10 - - - -
24/07:12pm 15.6 WNW 3 7 1014.7 - 0.0 - Partly cloudy 10 - - - -
24/07:00pm 15.7 N 6 9 1014.8 - 0.0 - Partly cloudy 10 - - - -
24/06:56pm 15.6 N 6 8 1014.8 - 0.0 - Partly cloudy 10 - - - -
24/06:30pm 15.5 N 6 8 1014.7 - 0.0 - Partly cloudy 10 - - - -
24/06:00pm 15.7 N 5 7 1014.8 - 0.0 - Cloudy 10 - - - -
24/05:30pm 16.1 CALM 0 0 1014.9 - 0.0 - Partly cloudy 10 - - - -
24/05:19pm 16.2 CALM 0 0 1015.0 - 0.0 - Partly cloudy 10 - - - -
24/05:00pm 16.5 CALM 0 2 1015.1 - 0.0 - Partly cloudy 10 - - - -
24/04:32pm 16.6 CALM 0 3 1015.3 - 0.0 - Partly cloudy 10 - - - -
24/04:30pm 16.6 CALM 0 3 1015.4 - 0.0 - Partly cloudy 10 - - - -
24/04:29pm 16.6 CALM 0 4 1015.4 - 0.0 - Partly cloudy 10 - - - -
24/04:00pm 16.7 NNE 4 6 1015.6 - 0.0 - Partly cloudy 10 - - - -
24/03:30pm 16.8 NNE 3 5 1015.8 - 0.0 - Cloudy 10 - - - -
24/03:00pm 17.3 NNE 3 5 1016.1 - 0.0 - Mostly cloudy 10 - - - -
24/02:30pm 16.8 CALM 0 1 1016.4 - 0.0 - Cloudy 10 - - - -
24/02:04pm 16.8 CALM 0 3 1016.7 - 0.0 - Partly cloudy 10 - - - -
24/02:00pm 16.7 ENE 1 3 1016.7 - 0.0 - Partly cloudy 10 - - - -
24/01:30pm 16.4 CALM 0 0 1017.3 - 0.0 - Partly cloudy 10 - - - -
24/01:00pm 16.6 CALM 0 0 1017.8 - 0.0 - Cloudy 10 - - - -
24/12:30pm 16.7 N 2 4 1018.4 - 0.0 - Partly cloudy 10 - - - -
24/12:00pm 16.8 WNW 1 4 1019.1 - 0.0 - Cloudy 10 - - - -
24/11:30am 16.3 WNW 1 3 1019.5 - 0.0 - Partly cloudy 10 - - - -
24/11:00am 16.3 W 3 5 1020.0 - 0.0 - Partly cloudy 10 - - - -
24/10:30am 15.9 W 1 4 1020.4 - 0.0 - Cloudy 10 - - - -
24/10:00am 15.4 CALM 0 3 1020.8 - 0.0 - Partly cloudy 10 - - - -
24/09:30am 15.1 SW 3 5 1021.0 - 0.0 - Partly cloudy 10 - - - -
24/09:24am 15.1 SW 1 5 1021.1 - 0.0 - Partly cloudy 10 - - - -
24/09:00am 14.6 WSW 1 4 1021.2 - 1.2 - Cloudy 10 - - - -
24/08:30am 14.3 W 1 4 1021.7 - 1.2 - Partly cloudy 10 - - - -
24/08:00am 14.1 WNW 3 4 1021.7 - 1.2 - Cloudy 10 - - - -
24/07:30am 13.9 CALM 0 0 1021.6 - 1.2 - Cloudy 10 - - - -
24/07:00am 13.7 CALM 0 0 1021.6 - 1.2 - Cloudy 10 - - - -
24/06:30am 13.7 NW 4 5 1021.9 - 1.2 - Cloudy 10 - - - -
24/06:00am 13.6 WNW 2 4 1021.9 - 1.2 - Cloudy 10 - - - -
24/05:35am 13.5 WSW 2 4 1021.9 - 1.2 - Partly cloudy 10 - - - -
24/05:30am 13.5 SSW 1 4 1022.0 - 1.2 - Partly cloudy 10 - - - -
24/05:00am 13.6 WSW 2 6 1022.1 - 1.2 - Partly cloudy 10 - - - -
24/04:30am 13.4 NW 4 6 1022.2 - 1.2 - Cloudy 10 - - - -
24/04:00am 13.2 WSW 3 5 1022.3 - 1.2 - Partly cloudy 10 - - - -
24/03:50am 13.0 WSW 1 4 1022.1 - 1.2 - Partly cloudy 10 - - - -
24/03:30am 13.0 WNW 1 4 1022.3 - 1.2 - Partly cloudy 10 - - - -
24/03:00am 13.2 WNW 4 5 1022.5 - 1.2 - Mostly cloudy 10 - - - -
24/02:30am 13.1 S 4 5 1022.7 - 1.2 - Partly cloudy 10 - - - -
24/02:00am 13.4 SSW 3 4 1023.0 - 1.2 - Partly cloudy 10 - - - -
24/01:30am 13.7 S 2 4 1023.5 - 1.2 - Partly cloudy 10 - - - -
24/01:00am 13.8 S 4 6 1023.8 - 1.2 - Partly cloudy 10 - - - -
24/12:30am 13.8 S 5 6 1024.0 - 1.2 - Partly cloudy 10 - - - -
24/12:00am 13.9 S 6 8 1024.3 - 1.2 - Mostly cloudy 10 - - - -
 
Date/Time
EST
Temp
°C
Wind Pressure Rain since
9am
mm
Weather Cloud Vis
km
Sea
Height
m
Swell
Dir  Spd
kts
Gust
kts
hPa Trend Height
m
Period
s
Dir
23/11:30pm 13.9 S 5 7 1024.6 - 1.2 - Partly cloudy 10 - - - -
23/11:00pm 13.8 S 5 7 1024.9 - 1.2 - Partly cloudy 10 - - - -
23/10:30pm 13.8 S 4 6 1025.1 - 1.2 - Cloudy 10 - - - -
23/10:00pm 13.7 S 4 6 1025.4 - 1.2 - Cloudy 10 - - - -
23/09:30pm 13.9 S 2 5 1025.4 - 1.2 - Cloudy 10 - - - -
23/09:00pm 14.0 S 6 9 1025.3 - 1.2 - Cloudy 10 - - - -
23/08:30pm 13.9 S 6 11 1025.2 - 1.2 - Partly cloudy 10 - - - -
23/08:00pm 13.8 S 7 11 1025.2 - 1.2 - Partly cloudy 10 - - - -
23/07:30pm 14.0 S 9 14 1025.1 - 1.2 - Partly cloudy 10 - - - -
23/07:09pm 14.0 S 9 14 1025.0 - 1.2 - Partly cloudy 10 - - - -
23/07:00pm 14.1 S 9 14 1025.0 - 1.2 - Partly cloudy 10 - - - -
23/06:30pm 14.0 S 9 16 1024.9 - 1.2 - Partly cloudy 10 - - - -
23/06:00pm 13.9 SSE 9 15 1024.7 - 1.2 - Mostly cloudy 10 - - - -

Other Formats:

Comma delimited format used in spreadsheet applications
http://www.bom.gov.au/fwo/IDT60701/IDT60701.95981.axf

JavaScript Object Notation format (JSON) in row-major order
http://www.bom.gov.au/fwo/IDT60701/IDT60701.95981.json